Time;durP1;ratioP1;P1;durP2;ratioP2;P2;SDS_P1;SDS_P2;PMS_P1;PMS_P2;Temp;Humidity;BMP_temperature;BMP_pressure;BME280_temperature;BME280_humidity;BME280_pressure;Samples;Min_cycle;Max_cycle;Signal;HPM_P1;HPM_P2
2024/01/30 00:00:52;;;;;;;13.60;12.10;;;7.40;1.00;;;;;;5118164;28;20798;-58
2024/01/30 00:03:20;;;;;;;16.97;12.27;;;7.30;99.90;;;;;;5118144;28;20462;-58
2024/01/30 00:05:49;;;;;;;14.90;11.80;;;7.20;99.90;;;;;;5117757;28;20455;-58
2024/01/30 00:08:16;;;;;;;17.40;11.80;;;7.20;1.00;;;;;;5117920;28;20466;-58
2024/01/30 00:10:43;;;;;;;14.40;12.10;;;7.10;1.00;;;;;;5117727;28;20479;-58
2024/01/30 00:13:11;;;;;;;17.10;12.30;;;7.10;1.00;;;;;;5118101;28;20467;-58
2024/01/30 00:15:38;;;;;;;12.73;11.43;;;7.20;1.00;;;;;;5118048;28;20430;-58
2024/01/30 00:18:06;;;;;;;14.90;11.47;;;7.10;1.00;;;;;;5121002;28;20474;-58
2024/01/30 00:20:33;;;;;;;15.97;11.33;;;7.20;1.00;;;;;;5117622;28;20888;-58
2024/01/30 00:23:01;;;;;;;16.00;12.47;;;6.90;99.90;;;;;;5116898;28;20466;-58
2024/01/30 00:25:29;;;;;;;15.27;11.50;;;6.80;1.00;;;;;;5117540;28;20466;-58
2024/01/30 00:27:56;;;;;;;12.60;11.30;;;6.70;1.00;;;;;;5117798;28;20806;-58
2024/01/30 00:30:24;;;;;;;13.40;11.47;;;6.70;1.00;;;;;;5117546;28;20504;-58
2024/01/30 00:32:52;;;;;;;16.53;13.70;;;6.80;1.00;;;;;;5118209;28;20459;-58
2024/01/30 00:35:19;;;;;;;14.90;11.87;;;6.70;1.00;;;;;;5117587;28;20808;-58
2024/01/30 00:37:47;;;;;;;16.93;12.33;;;6.80;1.00;;;;;;5117778;28;20876;-58
2024/01/30 00:40:17;;;;;;;14.67;12.93;;;6.80;1.00;;;;;;5117588;28;20464;-58
2024/01/30 00:42:45;;;;;;;16.20;12.90;;;6.80;1.00;;;;;;5117741;28;20487;-58
2024/01/30 00:45:17;;;;;;;14.43;12.53;;;6.80;1.00;;;;;;5117757;28;20900;-58
2024/01/30 00:47:45;;;;;;;16.90;12.43;;;6.90;1.00;;;;;;5117787;28;20794;-58
2024/01/30 00:50:12;;;;;;;15.27;12.13;;;6.80;1.00;;;;;;5117114;28;20456;-58
2024/01/30 00:52:41;;;;;;;12.90;11.57;;;6.90;1.00;;;;;;5117480;28;20455;-58
2024/01/30 00:55:09;;;;;;;16.07;11.90;;;6.80;1.00;;;;;;5117644;28;20459;-58
2024/01/30 00:57:37;;;;;;;17.43;13.17;;;6.80;1.00;;;;;;5117794;28;20459;-58
2024/01/30 01:00:08;;;;;;;14.17;12.03;;;6.80;1.00;;;;;;5117543;28;20551;-58
2024/01/30 01:02:35;;;;;;;12.60;11.30;;;6.80;1.00;;;;;;5117594;28;20484;-57
2024/01/30 01:05:03;;;;;;;14.57;12.30;;;6.70;1.00;;;;;;5117540;28;20483;-58
2024/01/30 01:07:30;;;;;;;14.83;12.27;;;6.70;1.00;;;;;;5117092;28;20455;-58
2024/01/30 01:09:58;;;;;;;15.50;12.80;;;6.80;1.00;;;;;;5117186;28;20497;-58
2024/01/30 01:12:25;;;;;;;16.10;12.37;;;6.80;1.00;;;;;;5117383;28;20565;-58
2024/01/30 01:14:54;;;;;;;15.00;11.60;;;6.80;1.00;;;;;;5117499;28;20455;-57
2024/01/30 01:17:21;;;;;;;19.30;12.93;;;6.80;1.00;;;;;;5117112;28;20887;-58
2024/01/30 01:19:48;;;;;;;15.27;12.30;;;6.80;1.00;;;;;;5117092;28;20528;-58
2024/01/30 01:22:17;;;;;;;18.50;14.10;;;6.70;1.00;;;;;;5117443;28;20799;-58
2024/01/30 01:24:44;;;;;;;15.83;12.17;;;6.70;1.00;;;;;;5117418;28;20464;-58
2024/01/30 01:27:11;;;;;;;16.10;13.17;;;6.70;1.00;;;;;;5120901;28;20550;-58
2024/01/30 01:29:39;;;;;;;15.97;11.93;;;6.70;1.00;;;;;;5120611;28;20546;-58
2024/01/30 01:32:08;;;;;;;13.93;11.47;;;6.70;1.00;;;;;;5120547;28;20447;-58
2024/01/30 01:34:35;;;;;;;17.33;12.40;;;6.60;1.00;;;;;;5120936;28;20458;-58
2024/01/30 01:37:02;;;;;;;19.90;14.00;;;6.70;1.00;;;;;;5120995;28;20904;-58
2024/01/30 01:39:30;;;;;;;19.53;12.40;;;6.60;1.00;;;;;;5120913;28;20868;-58
2024/01/30 01:41:57;;;;;;;16.37;13.57;;;6.50;1.00;;;;;;5120725;28;20869;-58
2024/01/30 01:44:24;;;;;;;20.50;12.93;;;6.50;53.00;;;;;;5120719;28;20554;-58
2024/01/30 01:46:53;;;;;;;18.43;13.97;;;6.60;99.90;;;;;;5120615;28;20455;-59
2024/01/30 01:49:24;;;;;;;17.07;13.27;;;6.60;99.90;;;;;;5120296;28;20554;-58
2024/01/30 01:51:54;;;;;;;17.27;13.03;;;6.60;55.90;;;;;;5120411;28;20794;-58
2024/01/30 01:54:22;;;;;;;14.77;12.43;;;6.50;99.90;;;;;;5120571;28;20932;-58
2024/01/30 01:56:49;;;;;;;14.57;12.70;;;6.50;99.90;;;;;;5119999;28;20461;-58
2024/01/30 01:59:16;;;;;;;19.07;14.20;;;6.50;99.90;;;;;;5119967;28;20549;-58
2024/01/30 02:01:45;;;;;;;13.10;11.70;;;6.60;99.90;;;;;;5119899;28;20943;-58
2024/01/30 02:07:36;;;;;;;14.97;11.93;;;6.50;99.90;;;;;;5213822;22;20532;-61
2024/01/30 02:10:04;;;;;;;18.07;14.50;;;6.60;99.90;;;;;;4979944;28;20462;-61
2024/01/30 02:12:31;;;;;;;14.80;11.43;;;6.60;99.90;;;;;;4980068;28;20462;-61
2024/01/30 02:14:58;;;;;;;17.30;13.93;;;6.70;99.90;;;;;;4978945;28;20572;-61
2024/01/30 02:17:26;;;;;;;14.43;12.33;;;6.70;99.90;;;;;;4979684;28;20515;-61
2024/01/30 02:19:53;;;;;;;17.00;13.10;;;6.70;99.90;;;;;;4979897;28;20511;-61
2024/01/30 02:22:23;;;;;;;14.30;12.10;;;6.70;99.90;;;;;;4980276;28;20925;-61
2024/01/30 02:24:50;;;;;;;16.07;13.20;;;6.80;99.90;;;;;;4979579;28;20470;-61
2024/01/30 02:27:17;;;;;;;18.00;12.30;;;6.80;99.90;;;;;;4978625;28;20512;-61
2024/01/30 02:29:45;;;;;;;14.57;12.20;;;6.90;99.90;;;;;;4979341;28;20498;-61
2024/01/30 02:32:12;;;;;;;14.90;12.70;;;6.90;99.90;;;;;;4979672;28;20454;-61
2024/01/30 02:34:39;;;;;;;15.03;12.13;;;6.90;99.90;;;;;;4980015;28;20489;-61
2024/01/30 02:37:06;;;;;;;16.10;12.63;;;7.00;96.70;;;;;;4980006;28;20961;-61
2024/01/30 02:39:35;;;;;;;19.33;13.23;;;7.00;16.20;;;;;;4978533;28;20436;-61
2024/01/30 02:42:01;;;;;;;15.90;13.47;;;7.00;1.00;;;;;;4979268;28;20514;-64
2024/01/30 02:44:28;;;;;;;14.20;12.00;;;6.90;1.00;;;;;;4980099;28;20511;-64
2024/01/30 02:46:55;;;;;;;15.37;12.30;;;7.00;1.00;;;;;;4979453;28;20565;-64
2024/01/30 02:49:23;;;;;;;17.63;13.27;;;6.90;1.00;;;;;;4979710;28;20570;-61
2024/01/30 02:51:50;;;;;;;14.30;11.97;;;6.80;1.00;;;;;;4980275;28;20899;-61
2024/01/30 02:54:18;;;;;;;12.53;11.23;;;6.90;1.00;;;;;;4979768;28;20465;-61
2024/01/30 02:56:48;;;;;;;18.97;12.70;;;6.90;1.00;;;;;;4979934;28;20501;-64
2024/01/30 02:59:15;;;;;;;14.70;11.53;;;7.00;1.00;;;;;;4980246;28;20553;-64
2024/01/30 03:01:46;;;;;;;13.70;11.33;;;7.00;1.00;;;;;;4979555;28;20514;-64
2024/01/30 03:04:13;;;;;;;16.90;12.77;;;7.10;1.00;;;;;;4979706;28;20465;-64
2024/01/30 03:06:45;;;;;;;14.47;11.03;;;7.00;1.00;;;;;;4979018;28;20503;-64
2024/01/30 03:09:13;;;;;;;14.37;12.30;;;7.10;1.00;;;;;;4979445;28;20836;-64
2024/01/30 03:11:40;;;;;;;18.53;12.50;;;7.20;1.00;;;;;;4978757;28;20462;-64
2024/01/30 03:14:10;;;;;;;14.33;12.27;;;7.20;1.00;;;;;;4978930;28;20912;-64
2024/01/30 03:16:38;;;;;;;15.50;11.70;;;7.20;1.00;;;;;;4978884;28;20898;-64
2024/01/30 03:19:07;;;;;;;20.60;11.53;;;7.20;1.00;;;;;;4978849;28;20494;-64
2024/01/30 03:21:34;;;;;;;15.60;10.43;;;7.20;1.00;;;;;;4979055;28;20503;-64
2024/01/30 03:24:01;;;;;;;17.00;11.67;;;7.30;1.00;;;;;;4979152;28;20465;-64
2024/01/30 03:26:29;;;;;;;14.50;11.70;;;7.30;1.00;;;;;;4979351;28;20462;-64
2024/01/30 03:28:56;;;;;;;13.83;11.67;;;7.30;1.00;;;;;;4979003;28;20472;-62
2024/01/30 03:31:24;;;;;;;14.87;11.80;;;7.30;1.00;;;;;;4978692;28;20497;-61
2024/01/30 03:33:52;;;;;;;14.10;11.17;;;7.30;1.00;;;;;;4979860;28;20469;-62
2024/01/30 03:36:19;;;;;;;16.67;12.20;;;7.30;1.00;;;;;;4978995;28;20572;-61
2024/01/30 03:38:46;;;;;;;15.17;11.60;;;7.30;1.00;;;;;;4979652;28;20498;-61
2024/01/30 03:41:13;;;;;;;13.30;11.63;;;7.30;1.00;;;;;;4978989;28;20462;-62
2024/01/30 03:43:41;;;;;;;15.53;10.57;;;7.40;1.00;;;;;;4978712;28;20537;-62
2024/01/30 03:46:08;;;;;;;12.40;10.73;;;7.40;1.00;;;;;;4979134;28;20462;-62
2024/01/30 03:48:37;;;;;;;13.83;11.67;;;7.30;1.00;;;;;;4977630;28;20556;-61
2024/01/30 03:51:05;;;;;;;13.10;10.43;;;7.20;1.00;;;;;;4978451;28;20488;-61
2024/01/30 03:53:32;;;;;;;13.07;11.23;;;7.10;1.00;;;;;;4979138;28;20464;-61
2024/01/30 03:55:59;;;;;;;12.53;10.30;;;7.10;1.00;;;;;;4978496;28;20505;-61
2024/01/30 03:58:27;;;;;;;17.73;10.50;;;7.20;1.00;;;;;;4978531;28;20852;-61
2024/01/30 04:00:54;;;;;;;14.70;10.70;;;7.20;1.00;;;;;;4978333;28;20489;-61
2024/01/30 04:03:21;;;;;;;13.97;11.23;;;7.20;1.00;;;;;;4978364;28;20976;-61
2024/01/30 04:05:50;;;;;;;12.40;10.13;;;7.30;1.00;;;;;;4978500;28;20469;-61
2024/01/30 04:08:17;;;;;;;10.70;9.60;;;7.40;1.00;;;;;;4977458;28;20772;-61
2024/01/30 04:10:44;;;;;;;12.70;11.10;;;7.40;1.00;;;;;;4979166;28;20466;-61
2024/01/30 04:13:12;;;;;;;12.10;10.07;;;7.30;1.00;;;;;;4978493;28;20545;-61
2024/01/30 04:15:39;;;;;;;13.67;10.83;;;7.20;1.00;;;;;;4978830;28;20568;-61
2024/01/30 04:18:07;;;;;;;13.37;11.73;;;7.00;1.00;;;;;;4978705;28;20466;-62
2024/01/30 04:20:34;;;;;;;13.33;9.37;;;7.00;1.00;;;;;;4978867;28;20466;-62
2024/01/30 04:23:03;;;;;;;15.77;11.03;;;6.90;1.00;;;;;;4979131;28;21015;-61
2024/01/30 04:25:30;;;;;;;14.00;10.00;;;7.00;8.40;;;;;;4978854;28;20553;-62
2024/01/30 04:27:57;;;;;;;12.10;10.70;;;7.00;1.00;;;;;;4979467;28;20488;-62
2024/01/30 04:30:25;;;;;;;15.63;10.83;;;7.00;1.00;;;;;;4978593;28;20500;-61
2024/01/30 04:32:52;;;;;;;13.00;10.80;;;7.00;1.00;;;;;;4978740;28;20564;-62
2024/01/30 04:35:23;;;;;;;12.97;10.10;;;7.00;2.30;;;;;;4978959;28;20969;-62
2024/01/30 04:37:50;;;;;;;14.80;10.30;;;7.00;1.00;;;;;;4979231;28;20474;-62
2024/01/30 04:40:19;;;;;;;12.30;10.93;;;7.00;1.00;;;;;;4978698;28;20825;-62
2024/01/30 04:42:46;;;;;;;15.43;11.33;;;7.10;1.00;;;;;;4978792;28;20819;-63
2024/01/30 04:45:14;;;;;;;15.03;11.60;;;7.10;1.00;;;;;;4977810;28;20973;-64
2024/01/30 04:47:41;;;;;;;13.00;10.50;;;7.20;1.00;;;;;;4978140;28;20933;-64
2024/01/30 04:50:09;;;;;;;11.20;9.97;;;7.30;1.00;;;;;;4978216;28;20505;-64
2024/01/30 04:52:37;;;;;;;15.57;10.37;;;7.20;1.00;;;;;;4977902;28;20756;-64
2024/01/30 04:55:04;;;;;;;11.57;10.30;;;7.20;1.00;;;;;;4977653;28;20469;-64
2024/01/30 04:57:33;;;;;;;14.10;11.23;;;7.20;1.00;;;;;;4976455;28;20461;-64
2024/01/30 05:00:01;;;;;;;17.93;11.47;;;7.10;1.00;;;;;;4979078;28;20882;-64
2024/01/30 05:02:28;;;;;;;14.27;10.97;;;7.00;1.00;;;;;;4979483;28;20747;-64
2024/01/30 05:04:55;;;;;;;13.20;11.07;;;7.00;1.00;;;;;;4980455;28;20465;-64
2024/01/30 05:07:23;;;;;;;12.40;10.60;;;7.10;49.40;;;;;;4980101;28;20490;-64
2024/01/30 05:09:50;;;;;;;15.97;11.97;;;7.00;1.00;;;;;;4980503;28;20509;-64
2024/01/30 05:12:17;;;;;;;14.70;11.17;;;7.00;49.90;;;;;;4981801;28;20515;-64
2024/01/30 05:14:46;;;;;;;12.83;10.90;;;7.00;81.60;;;;;;4979974;28;20494;-64
2024/01/30 05:17:13;;;;;;;19.73;11.80;;;6.90;99.90;;;;;;4980009;28;20465;-64
2024/01/30 05:19:40;;;;;;;12.60;9.10;;;7.00;99.90;;;;;;4980264;28;20901;-64
2024/01/30 05:22:08;;;;;;;12.70;11.37;;;7.00;86.80;;;;;;4972534;28;20524;-63
2024/01/30 05:24:35;;;;;;;13.57;10.90;;;6.90;1.00;;;;;;4972227;28;20466;-63
2024/01/30 05:27:02;;;;;;;13.17;10.30;;;7.00;15.40;;;;;;4998289;28;20765;-63
2024/01/30 05:29:29;;;;;;;12.90;10.90;;;6.90;1.00;;;;;;5000568;28;20666;-63
2024/01/30 05:31:58;;;;;;;12.63;9.60;;;6.90;1.00;;;;;;5000648;28;20563;-64
2024/01/30 05:34:25;;;;;;;13.50;9.97;;;6.90;99.90;;;;;;5000235;28;20512;-64
2024/01/30 05:36:52;;;;;;;13.37;9.93;;;6.90;99.90;;;;;;5000776;28;20485;-64
2024/01/30 05:39:19;;;;;;;12.90;9.83;;;7.00;1.00;;;;;;4991409;28;20561;-64
2024/01/30 05:41:47;;;;;;;12.27;10.90;;;6.90;1.00;;;;;;4980536;28;20762;-63
2024/01/30 05:44:14;;;;;;;12.17;9.83;;;6.80;99.90;;;;;;4980251;28;20493;-63
2024/01/30 05:46:41;;;;;;;11.70;9.73;;;6.70;99.90;;;;;;4979600;28;20493;-63
2024/01/30 05:49:10;;;;;;;11.23;9.60;;;6.80;99.90;;;;;;4984625;28;20565;-63
2024/01/30 05:51:37;;;;;;;10.70;9.50;;;6.90;99.90;;;;;;4994663;28;20496;-63
2024/01/30 05:54:04;;;;;;;12.43;10.97;;;6.90;99.90;;;;;;4998794;28;20858;-63
2024/01/30 05:56:31;;;;;;;13.33;9.67;;;7.00;99.90;;;;;;4998470;28;20551;-63
2024/01/30 05:58:58;;;;;;;12.10;9.93;;;7.10;99.90;;;;;;4997123;28;20496;-63
2024/01/30 06:01:26;;;;;;;10.40;8.73;;;7.10;99.90;;;;;;4998242;28;20814;-63
2024/01/30 06:03:53;;;;;;;14.20;9.47;;;7.10;99.90;;;;;;4998707;28;20573;-64
2024/01/30 06:06:22;;;;;;;12.17;10.30;;;7.00;65.40;;;;;;4998857;28;20435;-63
2024/01/30 06:08:49;;;;;;;12.40;10.17;;;6.90;44.10;;;;;;4960362;28;20862;-63
2024/01/30 06:11:16;;;;;;;14.40;10.20;;;6.90;99.90;;;;;;4957481;28;20521;-63
2024/01/30 06:13:43;;;;;;;13.90;10.20;;;7.00;99.90;;;;;;4949775;28;20497;-63
2024/01/30 06:16:12;;;;;;;11.20;9.60;;;6.90;99.90;;;;;;4939502;29;20737;-63
2024/01/30 06:18:39;;;;;;;13.87;9.63;;;7.00;1.00;;;;;;4939255;29;20475;-64
2024/01/30 06:21:07;;;;;;;11.63;9.63;;;7.20;99.90;;;;;;4938303;29;20452;-64
2024/01/30 06:23:36;;;;;;;11.00;9.40;;;7.30;1.00;;;;;;4938843;29;20546;-63
2024/01/30 06:26:04;;;;;;;11.03;9.77;;;7.30;96.00;;;;;;4940356;29;20471;-64
2024/01/30 06:28:31;;;;;;;15.03;9.90;;;7.30;99.90;;;;;;4940175;29;20480;-63
2024/01/30 06:30:59;;;;;;;11.20;10.00;;;7.40;1.00;;;;;;4940383;29;20498;-63
2024/01/30 06:33:26;;;;;;;15.73;9.73;;;7.30;54.10;;;;;;4940372;29;20467;-63
2024/01/30 06:35:53;;;;;;;12.50;9.40;;;7.40;99.90;;;;;;4940260;29;20514;-63
2024/01/30 06:38:21;;;;;;;14.50;9.90;;;7.40;1.00;;;;;;4937415;29;20506;-66
2024/01/30 06:40:49;;;;;;;15.47;11.60;;;7.50;99.90;;;;;;4938893;29;20446;-67
2024/01/30 06:43:17;;;;;;;12.50;9.80;;;7.40;91.70;;;;;;4939137;29;20492;-67
2024/01/30 06:45:44;;;;;;;12.10;9.40;;;7.40;22.00;;;;;;4953156;29;20521;-67
2024/01/30 06:48:11;;;;;;;12.00;9.80;;;7.40;99.90;;;;;;4951709;28;20744;-66
2024/01/30 06:50:38;;;;;;;12.27;9.83;;;7.40;99.90;;;;;;4941379;28;20518;-71
2024/01/30 06:53:06;;;;;;;13.17;9.93;;;7.40;1.00;;;;;;4942685;29;20498;-67
2024/01/30 06:55:33;;;;;;;11.03;9.90;;;7.50;37.10;;;;;;4958653;28;20463;-67
2024/01/30 06:58:02;;;;;;;11.47;9.77;;;7.50;88.10;;;;;;4959329;28;20490;-67
2024/01/30 07:00:29;;;;;;;12.47;9.50;;;7.60;41.80;;;;;;4940529;29;20471;-66
2024/01/30 07:02:56;;;;;;;11.40;9.10;;;7.50;1.00;;;;;;4946059;29;20552;-66
2024/01/30 07:05:24;;;;;;;11.57;10.00;;;7.60;99.90;;;;;;4960688;28;20467;-67
2024/01/30 07:07:51;;;;;;;11.60;10.40;;;7.60;1.00;;;;;;4983295;28;20698;-67
2024/01/30 07:10:18;;;;;;;10.93;9.37;;;7.60;1.00;;;;;;4998052;28;20461;-67
2024/01/30 07:12:46;;;;;;;12.97;10.33;;;7.60;1.00;;;;;;4998401;28;20465;-66
2024/01/30 07:15:19;;;;;;;14.33;9.90;;;7.60;1.00;;;;;;4989528;28;20892;-67
2024/01/30 07:17:46;;;;;;;11.63;9.73;;;7.60;1.00;;;;;;4981903;28;20492;-67
2024/01/30 07:20:14;;;;;;;12.63;10.40;;;7.60;1.00;;;;;;4980846;28;20437;-67
2024/01/30 07:22:42;;;;;;;13.13;10.67;;;7.60;1.00;;;;;;4979983;28;20462;-67
2024/01/30 07:25:10;;;;;;;11.87;10.10;;;7.70;1.00;;;;;;4980963;28;20497;-67
2024/01/30 07:27:38;;;;;;;12.67;10.03;;;7.70;99.90;;;;;;4981898;28;20883;-67
2024/01/30 07:30:06;;;;;;;11.70;10.13;;;7.70;1.00;;;;;;4963794;28;20463;-67
2024/01/30 07:32:35;;;;;;;11.53;9.50;;;7.70;1.00;;;;;;4985150;28;20551;-67
2024/01/30 07:35:03;;;;;;;12.57;9.00;;;7.80;1.00;;;;;;4994061;28;20480;-67
2024/01/30 07:37:30;;;;;;;13.60;9.90;;;7.80;99.90;;;;;;4987852;28;20551;-67
2024/01/30 07:39:57;;;;;;;12.27;9.33;;;7.80;99.90;;;;;;4992794;28;20470;-67
2024/01/30 07:42:25;;;;;;;12.10;9.90;;;7.90;99.90;;;;;;4990908;28;20465;-67
2024/01/30 07:44:52;;;;;;;11.00;9.00;;;7.90;1.00;;;;;;5000819;28;20535;-67
2024/01/30 07:47:20;;;;;;;11.63;9.57;;;7.90;99.90;;;;;;4982613;28;20466;-67
2024/01/30 07:49:49;;;;;;;11.50;10.30;;;7.90;1.00;;;;;;4981209;28;20462;-67
2024/01/30 07:52:16;;;;;;;11.77;10.23;;;7.90;1.00;;;;;;4998075;28;20461;-67
2024/01/30 07:54:44;;;;;;;15.77;9.53;;;7.90;1.00;;;;;;4999698;28;20496;-66
2024/01/30 07:57:11;;;;;;;10.70;9.57;;;7.90;1.00;;;;;;4999830;28;20479;-67
2024/01/30 07:59:38;;;;;;;13.50;10.10;;;7.90;1.00;;;;;;5000977;28;20461;-67
2024/01/30 08:02:06;;;;;;;11.30;9.83;;;8.00;1.00;;;;;;5000318;28;20465;-67
2024/01/30 08:04:33;;;;;;;11.10;9.60;;;8.10;11.00;;;;;;5001749;28;20501;-67
2024/01/30 08:07:02;;;;;;;12.03;9.20;;;8.20;1.00;;;;;;4999097;28;20493;-67
2024/01/30 08:09:29;;;;;;;12.27;9.10;;;8.20;1.00;;;;;;5000030;28;20518;-67
2024/01/30 08:11:57;;;;;;;14.50;9.70;;;8.30;1.00;;;;;;4999441;28;20759;-67
2024/01/30 08:14:25;;;;;;;12.47;9.73;;;8.30;1.00;;;;;;4998783;28;20442;-67
2024/01/30 08:16:53;;;;;;;11.90;9.00;;;8.40;1.00;;;;;;4999372;28;20559;-67
2024/01/30 08:19:20;;;;;;;12.67;9.70;;;8.40;1.00;;;;;;5000349;28;20489;-67
2024/01/30 08:21:48;;;;;;;12.60;9.47;;;8.40;1.00;;;;;;5001321;28;20442;-67
2024/01/30 08:24:16;;;;;;;14.70;9.83;;;8.40;1.00;;;;;;5001180;28;20971;-67
2024/01/30 08:26:44;;;;;;;11.97;8.90;;;8.40;1.00;;;;;;5000954;28;20952;-67
2024/01/30 08:29:11;;;;;;;12.20;9.30;;;8.50;1.00;;;;;;4985000;28;20505;-67
2024/01/30 08:31:39;;;;;;;15.50;9.80;;;8.50;1.00;;;;;;4984758;28;20512;-67
2024/01/30 08:34:07;;;;;;;13.20;11.57;;;8.60;1.00;;;;;;5003232;28;20469;-67
2024/01/30 08:36:34;;;;;;;11.07;9.00;;;8.60;1.00;;;;;;5006340;28;20469;-67
2024/01/30 08:39:02;;;;;;;12.40;9.60;;;8.60;1.00;;;;;;4989880;28;20944;-67
2024/01/30 08:41:31;;;;;;;13.47;9.60;;;8.60;1.00;;;;;;4985352;28;20449;-67
2024/01/30 08:43:59;;;;;;;11.03;8.67;;;8.60;1.00;;;;;;4984949;28;20516;-67
2024/01/30 08:46:26;;;;;;;12.60;9.47;;;8.70;42.60;;;;;;4985431;28;20470;-67
2024/01/30 08:48:54;;;;;;;10.37;8.83;;;8.70;1.00;;;;;;4981845;28;20472;-67
2024/01/30 08:51:22;;;;;;;10.63;9.17;;;8.70;99.90;;;;;;4996310;28;20762;-67
2024/01/30 08:53:50;;;;;;;10.20;8.00;;;8.70;1.00;;;;;;5002835;28;20465;-67
2024/01/30 08:56:17;;;;;;;11.17;8.53;;;8.90;1.00;;;;;;5002917;28;20492;-67
2024/01/30 08:58:46;;;;;;;8.83;7.90;;;8.90;1.00;;;;;;4985808;28;20465;-67
2024/01/30 09:01:14;;;;;;;12.13;9.47;;;8.90;1.00;;;;;;5002830;28;20504;-67
2024/01/30 09:03:43;;;;;;;9.40;8.33;;;8.90;1.00;;;;;;5001860;28;20571;-67
2024/01/30 09:06:11;;;;;;;9.50;8.50;;;8.90;1.00;;;;;;4996682;28;20451;-67
2024/01/30 09:08:38;;;;;;;10.30;8.10;;;8.90;99.90;;;;;;4981686;28;20486;-67
2024/01/30 09:11:10;;;;;;;11.30;7.97;;;9.00;1.00;;;;;;4990594;28;20465;-67
2024/01/30 09:13:38;;;;;;;9.70;8.70;;;9.00;1.00;;;;;;4993132;28;20545;-67
2024/01/30 09:16:08;;;;;;;14.27;9.53;;;9.10;1.00;;;;;;4994934;28;20464;-67
2024/01/30 09:18:35;;;;;;;9.97;8.20;;;9.20;99.90;;;;;;5001590;28;20548;-67
2024/01/30 09:21:02;;;;;;;12.37;8.97;;;9.30;1.00;;;;;;4987531;28;20476;-67
2024/01/30 09:23:30;;;;;;;10.23;7.93;;;9.40;1.00;;;;;;4984673;28;20529;-67
2024/01/30 09:25:57;;;;;;;10.90;8.33;;;9.50;1.00;;;;;;4984782;28;20527;-67
2024/01/30 09:28:25;;;;;;;11.57;8.33;;;9.60;99.90;;;;;;5001888;28;20472;-66
2024/01/30 09:30:53;;;;;;;12.23;7.93;;;9.60;1.00;;;;;;5004085;28;20443;-67
2024/01/30 09:33:22;;;;;;;11.20;8.30;;;9.70;1.00;;;;;;5004318;28;20500;-67
2024/01/30 09:35:49;;;;;;;10.30;8.37;;;9.70;1.00;;;;;;5001253;28;20477;-67
2024/01/30 09:38:17;;;;;;;11.57;8.70;;;9.70;1.00;;;;;;4986549;28;20912;-67
2024/01/30 09:40:45;;;;;;;9.47;8.47;;;9.70;1.00;;;;;;4987301;28;20433;-67
2024/01/30 09:43:18;;;;;;;14.60;10.40;;;9.70;1.00;;;;;;4986631;28;20466;-67
2024/01/30 09:45:47;;;;;;;18.40;11.57;;;9.80;99.90;;;;;;4985950;28;20462;-67
2024/01/30 09:48:16;;;;;;;15.53;10.30;;;9.80;1.00;;;;;;5005299;28;20457;-67
2024/01/30 09:50:44;;;;;;;9.63;8.03;;;9.90;99.90;;;;;;5004719;28;20537;-67
2024/01/30 09:53:14;;;;;;;12.80;10.17;;;10.00;1.00;;;;;;5005682;28;20469;-67
2024/01/30 09:55:45;;;;;;;9.10;7.57;;;10.20;99.90;;;;;;5003189;28;20764;-67
2024/01/30 09:58:13;;;;;;;10.53;8.10;;;10.20;99.90;;;;;;5003730;28;20481;-67
2024/01/30 10:00:41;;;;;;;10.87;7.60;;;10.40;99.90;;;;;;4987765;28;20458;-67
2024/01/30 10:03:08;;;;;;;10.20;8.47;;;10.50;99.90;;;;;;5001821;28;20465;-67
2024/01/30 10:05:38;;;;;;;12.63;7.33;;;10.50;1.00;;;;;;5000666;28;20567;-67
2024/01/30 10:08:09;;;;;;;11.93;8.30;;;10.60;99.90;;;;;;4980473;28;20927;-67
2024/01/30 10:10:37;;;;;;;10.37;8.63;;;10.60;99.90;;;;;;4982836;28;20465;-67
2024/01/30 10:13:05;;;;;;;10.10;7.90;;;10.60;1.00;;;;;;4982363;28;20744;-67
2024/01/30 10:15:32;;;;;;;11.23;8.10;;;10.70;1.00;;;;;;4993885;28;20450;-67
2024/01/30 10:18:00;;;;;;;11.17;8.10;;;10.70;1.00;;;;;;4991189;28;20473;-67
2024/01/30 10:20:27;;;;;;;9.60;7.37;;;10.80;1.00;;;;;;4981184;28;20464;-67
2024/01/30 10:22:55;;;;;;;11.00;7.73;;;10.90;1.00;;;;;;4979592;28;20462;-67
2024/01/30 10:25:25;;;;;;;9.73;8.00;;;11.00;1.00;;;;;;4979988;28;20801;-67
2024/01/30 10:27:55;;;;;;;9.90;7.67;;;11.20;1.00;;;;;;4977774;28;20528;-66
2024/01/30 10:30:22;;;;;;;8.87;7.20;;;11.50;99.90;;;;;;4993549;28;20508;-67
2024/01/30 10:32:51;;;;;;;9.50;8.00;;;11.50;99.90;;;;;;4980644;28;20454;-66
2024/01/30 10:35:18;;;;;;;11.70;8.37;;;11.50;99.90;;;;;;4986279;28;20818;-67
2024/01/30 10:37:49;;;;;;;9.03;8.10;;;11.50;99.90;;;;;;5002262;28;20561;-67
2024/01/30 10:40:17;;;;;;;8.97;7.30;;;11.50;99.90;;;;;;4991463;28;20466;-67
2024/01/30 10:42:47;;;;;;;9.53;8.20;;;11.50;99.90;;;;;;4983060;28;20564;-66
2024/01/30 10:45:15;;;;;;;9.67;8.67;;;11.70;99.90;;;;;;4984217;28;20533;-67
2024/01/30 10:47:49;;;;;;;10.63;7.80;;;11.90;99.90;;;;;;4985045;28;20478;-67
2024/01/30 10:50:17;;;;;;;12.20;7.73;;;12.00;52.80;;;;;;4992822;28;20945;-67
2024/01/30 10:52:45;;;;;;;8.70;7.70;;;12.10;1.00;;;;;;4981834;28;20470;-65
2024/01/30 10:55:14;;;;;;;11.93;7.90;;;12.00;99.90;;;;;;4988870;28;20564;-67
2024/01/30 10:57:41;;;;;;;11.70;9.27;;;12.00;99.90;;;;;;4981332;28;20887;-67
2024/01/30 11:00:13;;;;;;;10.00;8.00;;;12.10;1.00;;;;;;4985306;28;20458;-68
2024/01/30 11:02:43;;;;;;;10.07;7.50;;;12.30;1.00;;;;;;4999869;28;20454;-67
2024/01/30 11:05:11;;;;;;;10.60;6.37;;;12.50;1.00;;;;;;4988634;28;20504;-67
2024/01/30 11:07:41;;;;;;;9.20;7.23;;;12.60;1.00;;;;;;5001955;28;20493;-67
2024/01/30 11:10:12;;;;;;;11.90;7.70;;;12.80;1.00;;;;;;5002235;28;20467;-67
2024/01/30 11:12:43;;;;;;;7.87;6.83;;;12.90;1.00;;;;;;5004911;28;20476;-67
2024/01/30 11:15:13;;;;;;;9.27;6.80;;;12.80;1.00;;;;;;4990205;28;20516;-66
2024/01/30 11:17:45;;;;;;;8.83;6.77;;;12.90;1.00;;;;;;4979435;28;20464;-67
2024/01/30 11:20:14;;;;;;;9.40;6.83;;;12.90;35.00;;;;;;4983998;28;20470;-67
2024/01/30 11:22:46;;;;;;;8.80;7.30;;;12.80;1.00;;;;;;4983607;28;20564;-68
2024/01/30 11:25:15;;;;;;;12.73;7.20;;;12.90;99.90;;;;;;4981825;28;20508;-67
2024/01/30 11:27:43;;;;;;;8.53;6.30;;;12.90;1.00;;;;;;4980284;28;20493;-67
2024/01/30 11:30:12;;;;;;;10.63;7.10;;;13.00;1.00;;;;;;4982449;28;20817;-67
2024/01/30 11:32:41;;;;;;;9.07;7.00;;;13.00;1.00;;;;;;4983811;28;20971;-67
2024/01/30 11:35:11;;;;;;;9.97;7.10;;;13.20;1.00;;;;;;4984009;28;20458;-67
2024/01/30 11:37:39;;;;;;;9.77;7.63;;;13.10;1.00;;;;;;4982354;28;20483;-67
2024/01/30 11:40:08;;;;;;;12.87;7.97;;;13.20;1.00;;;;;;4982476;28;20529;-67
2024/01/30 11:42:39;;;;;;;15.10;9.30;;;13.20;1.00;;;;;;4985875;28;20466;-67
2024/01/30 11:45:07;;;;;;;12.30;9.40;;;13.10;99.90;;;;;;4984843;28;20946;-67
2024/01/30 11:47:38;;;;;;;12.00;9.80;;;13.10;99.90;;;;;;4985582;28;20465;-67
2024/01/30 11:50:08;;;;;;;12.00;7.50;;;13.00;99.90;;;;;;4987980;28;20472;-67
2024/01/30 11:52:35;;;;;;;13.77;8.50;;;13.00;99.90;;;;;;4985922;28;20473;-67
2024/01/30 11:55:04;;;;;;;14.80;7.67;;;13.10;99.90;;;;;;4984590;28;20565;-67
2024/01/30 11:57:32;;;;;;;11.20;7.53;;;12.90;99.90;;;;;;4985405;28;20458;-67
2024/01/30 11:59:59;;;;;;;15.63;8.83;;;13.00;99.90;;;;;;4986735;28;20493;-67
2024/01/30 12:02:30;;;;;;;8.60;7.23;;;13.10;99.90;;;;;;4986541;28;20468;-65
2024/01/30 12:04:59;;;;;;;10.57;7.90;;;13.30;1.00;;;;;;4985747;28;20493;-66
2024/01/30 12:07:27;;;;;;;11.33;7.23;;;13.60;1.00;;;;;;4985563;28;20496;-65
2024/01/30 12:09:55;;;;;;;10.73;7.50;;;13.50;99.90;;;;;;4985331;28;20473;-65
2024/01/30 12:12:25;;;;;;;15.83;7.37;;;13.50;1.00;;;;;;4982874;28;20496;-64
2024/01/30 12:14:52;;;;;;;12.53;6.80;;;13.30;1.00;;;;;;4982150;28;20453;-64
2024/01/30 12:17:31;;;;;;;12.30;7.70;;;13.10;99.90;;;;;;4981265;28;20488;-67
2024/01/30 12:20:07;;;;;;;12.33;7.60;;;12.90;1.00;;;;;;4983138;28;20465;-66
2024/01/30 12:22:38;;;;;;;15.27;7.93;;;12.70;1.00;;;;;;4984563;28;20955;-65
2024/01/30 12:25:09;;;;;;;10.57;7.43;;;12.60;39.70;;;;;;4982315;28;20532;-65
2024/01/30 12:27:37;;;;;;;15.20;7.40;;;12.50;99.90;;;;;;4984323;28;20535;-65
2024/01/30 12:30:08;;;;;;;11.27;8.10;;;12.40;99.90;;;;;;4985055;28;20477;-65
2024/01/30 12:32:37;;;;;;;11.07;7.33;;;12.40;99.90;;;;;;4984465;28;20758;-64
2024/01/30 12:35:08;;;;;;;10.10;8.17;;;12.20;99.90;;;;;;4982950;28;20480;-66
2024/01/30 12:37:36;;;;;;;10.20;7.90;;;12.20;99.90;;;;;;4985692;28;20466;-65
2024/01/30 12:40:05;;;;;;;14.10;7.50;;;12.20;99.90;;;;;;4986264;28;20523;-67
2024/01/30 12:42:33;;;;;;;12.60;8.20;;;12.20;99.90;;;;;;4984507;28;20499;-69
2024/01/30 12:45:01;;;;;;;12.20;7.93;;;12.20;99.90;;;;;;4982290;28;20468;-67
2024/01/30 12:47:29;;;;;;;15.67;8.90;;;12.10;1.00;;;;;;4982778;28;20534;-64
2024/01/30 12:49:57;;;;;;;13.30;8.03;;;12.00;1.00;;;;;;4976008;28;20466;-65
2024/01/30 12:52:27;;;;;;;10.50;8.60;;;12.00;1.00;;;;;;4975162;28;20847;-66
2024/01/30 12:54:54;;;;;;;10.60;8.00;;;12.00;1.00;;;;;;4975383;28;20513;-66